Latest Weather Observations for Brisbane Airport

IDQ60801

Issued at 11:12 pm EST Monday 25 January 2021 (issued every 10 minutes, with the page automatically refreshed every 10 minutes)

About weather observations | Map of weather stations | Latest weather observations for QLD | Other Formats
Station Details ID: 040842 Name: BRISBANE AERO Lat: -27.39 Lon: 153.13 Height: 4.51 m
Data from the previous 72 hours. | See also: Recent months at Brisbane Airport
Date/Time
EST
Temp
°C
App
Temp
°C
Dew
Point
°C
Rel
Hum
%
Delta-T
°C
Wind Press
QNH
hPa
Press
MSL
hPa
Rain since
9am
mm
Dir  Spd
km/h
Gust
km/h
Spd
kts
Gust
kts
25/11:00pm 22.2 23.6 17.7 75 2.8 NE 7 9 4 5 1010.0 1010.0 0.2
25/10:30pm 22.7 23.3 17.7 73 3.1 NE 11 15 6 8 1010.3 1010.3 0.2
25/10:00pm 22.4 22.6 17.7 75 2.9 NE 13 15 7 8 1010.5 1010.5 0.2
25/09:30pm 22.5 23.1 17.7 74 3.0 NE 11 15 6 8 1010.3 1010.3 0.2
25/09:00pm 22.6 22.9 17.8 74 3.0 NE 13 17 7 9 1010.2 1010.2 0.2
25/08:30pm 22.5 23.2 18.0 75 2.8 NE 11 15 6 8 1010.1 1010.1 0.2
25/08:00pm 23.2 23.9 17.9 72 3.3 NE 11 13 6 7 1010.0 1010.0 0.2
25/07:30pm 24.7 24.8 17.5 64 4.5 ENE 13 19 7 10 1009.9 1009.9 0.2
25/07:00pm 24.8 24.9 18.3 67 4.1 ENE 15 19 8 10 1009.9 1009.9 0.2
25/06:30pm 25.1 25.3 18.5 67 4.2 ENE 15 20 8 11 1009.7 1009.7 0.2
25/06:00pm 25.7 25.2 17.9 62 4.9 ENE 17 24 9 13 1009.4 1009.4 0.2
25/05:30pm 26.3 25.2 17.4 58 5.6 NE 19 26 10 14 1009.2 1009.2 0.2
25/05:00pm 26.5 25.6 18.1 60 5.3 NE 20 28 11 15 1009.0 1009.0 0.2
25/04:30pm 26.8 26.0 18.0 58 5.6 ENE 19 30 10 16 1009.0 1009.0 0.2
25/04:00pm 27.1 27.0 18.7 60 5.4 NE 17 26 9 14 1009.1 1009.1 0.2
25/03:30pm 26.5 26.7 20.2 68 4.1 NE 19 26 10 14 1009.5 1009.5 0.2
25/03:00pm 27.6 28.0 19.9 63 5.0 NE 17 24 9 13 1009.7 1009.7 0.2
25/02:30pm 27.2 27.0 19.7 63 4.9 NE 20 26 11 14 1010.0 1010.0 0.2
25/02:00pm 27.0 27.0 19.8 64 4.7 NE 19 26 10 14 1010.4 1010.4 0.2
25/01:30pm 26.9 27.0 19.1 62 5.0 NE 17 26 9 14 1010.8 1010.8 0.2
25/01:00pm 26.5 27.5 19.5 65 4.5 NE 13 19 7 10 1011.1 1011.1 0.2
25/12:30pm 26.5 28.5 19.9 67 4.3 NNE 9 15 5 8 1011.6 1011.6 0.0
25/12:00pm 25.5 26.8 19.3 68 4.0 N 11 17 6 9 1011.8 1011.8 0.0
25/11:30am 25.3 27.8 20.2 73 3.3 E 7 11 4 6 1012.3 1012.3 0.0
25/11:00am 24.3 26.2 20.5 79 2.5 E 11 15 6 8 1012.6 1012.6 0.0
25/10:30am 25.1 27.3 20.5 75 3.0 N 9 15 5 8 1012.6 1012.6 0.0
25/10:00am 24.9 27.8 20.6 77 2.8 W 6 9 3 5 1012.8 1012.8 0.0
25/09:30am 24.2 26.6 20.8 81 2.2 WNW 9 11 5 6 1012.8 1012.8 0.0
25/09:00am 22.5 24.8 20.7 89 1.2 ESE 9 13 5 7 1013.1 1013.1 4.6
25/08:54am 22.4 24.1 19.4 83 1.9 SE 9 17 5 9 1013.1 1013.1 4.4
25/08:30am 24.4 26.5 20.9 81 2.3 W 11 15 6 8 1012.9 1012.9 3.2
25/08:00am 24.7 27.2 21.1 80 2.4 WSW 9 13 5 7 1012.8 1012.8 3.2
25/07:30am 23.5 25.8 20.7 84 1.8 SW 9 13 5 7 1012.8 1012.8 3.2
25/07:00am 22.3 24.7 20.9 92 0.9 SSW 9 13 5 7 1013.0 1013.0 3.2
25/06:30am 22.1 24.2 20.9 93 0.8 W 11 15 6 8 1012.7 1012.7 3.2
25/06:00am 22.3 26.6 21.2 93 0.7 CALM 0 0 0 0 1012.5 1012.5 3.2
25/05:30am 22.1 26.3 20.9 93 0.8 CALM 0 0 0 0 1012.2 1012.2 3.2
25/05:00am 22.2 26.4 21.0 93 0.8 CALM 0 0 0 0 1012.0 1012.0 3.2
25/04:30am 22.1 26.3 21.0 93 0.7 CALM 0 0 0 0 1011.9 1011.9 3.2
25/04:00am 22.0 26.0 20.6 92 0.9 CALM 0 0 0 0 1011.6 1011.6 3.2
25/03:30am 21.9 24.4 21.0 95 0.6 NE 9 15 5 8 1011.6 1011.6 3.2
25/03:00am 22.0 24.5 21.1 95 0.6 SSW 9 11 5 6 1011.7 1011.7 3.0
25/02:30am 21.8 24.2 20.9 95 0.6 SSW 9 9 5 5 1011.7 1011.7 3.0
25/02:00am 21.2 22.5 20.1 93 0.7 E 13 20 7 11 1012.0 1012.0 3.0
25/01:48am 22.0 23.1 20.5 91 1.0 ESE 15 26 8 14 1012.1 1012.1 0.8
25/01:30am 22.7 25.7 21.3 92 0.9 SSW 7 9 4 5 1012.1 1012.1 0.0
25/01:00am 22.6 26.5 21.2 92 0.9 SW 2 9 1 5 1012.3 1012.3 0.0
25/12:30am 22.5 26.8 21.1 92 0.9 CALM 0 2 0 1 1012.8 1012.8 0.0
25/12:00am 22.8 26.8 21.4 92 0.9 SSW 2 7 1 4 1013.3 1013.3 0.0
 
Date/Time
EST
Temp
°C
App
Temp
°C
Dew
Point
°C
Rel
Hum
%
Delta-T
°C
Wind Press
QNH
hPa
Press
MSL
hPa
Rain since
9am
mm
Dir  Spd
km/h
Gust
km/h
Spd
kts
Gust
kts
24/11:30pm 23.0 25.6 21.2 89 1.2 SSW 9 9 5 5 1013.6 1013.6 0.0
24/11:00pm 23.2 25.8 21.2 88 1.3 SSW 9 13 5 7 1013.7 1013.7 0.0
24/10:30pm 23.2 27.5 21.1 88 1.4 CALM 0 0 0 0 1013.9 1013.9 0.0
24/10:00pm 23.3 27.4 20.7 85 1.7 CALM 0 0 0 0 1014.0 1014.0 0.0
24/09:30pm 23.4 27.4 20.5 84 1.9 CALM 0 0 0 0 1014.1 1014.1 0.0
24/09:00pm 23.1 25.6 20.3 84 1.8 NE 7 9 4 5 1014.1 1014.1 0.0
24/08:30pm 23.2 25.9 20.3 84 1.9 ENE 6 7 3 4 1014.1 1014.1 0.0
24/08:00pm 23.3 27.1 20.2 83 2.0 CALM 0 0 0 0 1014.1 1014.1 0.0
24/07:30pm 23.2 26.7 20.3 84 1.9 E 2 6 1 3 1013.9 1013.9 0.0
24/07:00pm 23.6 25.6 20.0 80 2.3 ENE 9 13 5 7 1013.7 1013.7 0.0
24/06:30pm 23.6 24.8 19.9 80 2.4 NE 13 19 7 10 1013.4 1013.4 0.0
24/06:00pm 23.6 22.9 20.2 81 2.2 NE 24 32 13 17 1013.1 1013.1 0.0
24/05:30pm 24.3 23.2 21.1 82 2.1 NE 28 37 15 20 1012.8 1012.8 0.0
24/05:00pm 26.0 26.0 19.0 65 4.5 ENE 17 24 9 13 1012.7 1012.7 0.0
24/04:30pm 26.2 26.2 19.0 64 4.6 ENE 17 26 9 14 1012.7 1012.7 0.0
24/04:00pm 26.7 26.5 18.4 60 5.3 ENE 17 26 9 14 1012.5 1012.5 0.0
24/03:30pm 27.3 26.6 18.2 57 5.8 ENE 19 30 10 16 1012.5 1012.5 0.0
24/03:00pm 27.4 27.0 20.1 64 4.8 ENE 22 32 12 17 1012.4 1012.4 0.0
24/02:30pm 27.5 27.0 20.0 63 4.9 E 22 32 12 17 1012.7 1012.7 0.0
24/02:00pm 27.6 26.6 18.9 59 5.6 ENE 22 32 12 17 1012.9 1012.9 0.0
24/01:30pm 28.1 28.0 18.8 57 6.0 ENE 17 30 9 16 1013.3 1013.3 0.0
24/01:00pm 27.5 27.3 17.7 55 6.2 E 15 28 8 15 1013.6 1013.6 0.0
24/12:30pm 27.6 26.9 14.4 44 7.9 E 11 17 6 9 1014.1 1014.1 0.0
24/12:00pm 28.0 27.1 16.8 50 7.0 E 17 30 9 16 1014.5 1014.5 0.0
24/11:30am 27.4 26.6 16.2 50 6.9 E 15 22 8 12 1014.8 1014.8 0.0
24/11:00am 26.5 26.3 16.6 54 6.1 E 13 20 7 11 1015.1 1015.1 0.0
24/10:30am 27.3 27.4 17.4 54 6.2 SSE 13 20 7 11 1015.3 1015.3 0.0
24/10:00am 26.6 26.1 16.0 52 6.5 SE 13 20 7 11 1015.6 1015.6 0.0
24/09:30am 27.0 26.5 16.9 54 6.3 SE 15 20 8 11 1015.6 1015.6 0.0
24/09:00am 26.9 26.3 16.6 53 6.4 SE 15 22 8 12 1015.6 1015.6 0.0
24/08:30am 26.1 26.7 17.7 60 5.3 SE 11 17 6 9 1015.5 1015.5 0.0
24/08:00am 25.2 26.3 18.0 64 4.5 S 9 15 5 8 1015.4 1015.4 0.0
24/07:30am 23.6 24.0 17.3 67 3.9 SSW 11 15 6 8 1015.4 1015.4 0.0
24/07:00am 22.9 23.1 17.6 72 3.3 SSW 13 17 7 9 1015.3 1015.3 0.0
24/06:30am 20.5 21.0 17.4 82 1.9 SW 11 15 6 8 1015.1 1015.1 0.0
24/06:00am 19.9 20.0 17.4 85 1.5 SW 13 15 7 8 1014.7 1014.7 0.0
24/05:30am 19.8 20.6 17.3 85 1.5 SW 9 11 5 6 1014.3 1014.3 0.0
24/05:00am 20.5 21.3 17.2 81 2.0 SW 9 11 5 6 1013.9 1013.9 0.0
24/04:30am 20.4 21.0 16.9 80 2.1 SSW 9 13 5 7 1013.9 1013.9 0.0
24/04:00am 18.7 18.8 16.5 87 1.3 SSW 11 13 6 7 1013.7 1013.7 0.0
24/03:30am 19.0 18.9 16.1 83 1.7 SSW 11 11 6 6 1013.6 1013.6 0.0
24/03:00am 20.0 20.4 16.2 79 2.3 SSW 9 9 5 5 1013.7 1013.7 0.0
24/02:30am 19.3 19.2 16.1 82 1.9 SW 11 11 6 6 1014.0 1014.0 0.0
24/02:00am 19.6 21.5 15.7 78 2.3 CALM 0 9 0 5 1014.2 1014.2 0.0
24/01:30am 22.0 22.3 15.1 65 4.1 SE 7 9 4 5 1014.6 1014.6 0.0
24/01:00am 22.4 22.7 15.0 63 4.4 ESE 7 9 4 5 1015.1 1015.1 0.0
24/12:30am 22.9 22.9 14.2 58 5.1 ESE 7 9 4 5 1015.2 1015.2 0.0
24/12:00am 23.1 22.9 14.6 58 5.0 E 9 13 5 7 1015.4 1015.4 0.0
 
Date/Time
EST
Temp
°C
App
Temp
°C
Dew
Point
°C
Rel
Hum
%
Delta-T
°C
Wind Press
QNH
hPa
Press
MSL
hPa
Rain since
9am
mm
Dir  Spd
km/h
Gust
km/h
Spd
kts
Gust
kts
23/11:30pm 23.7 22.9 14.0 54 5.7 ESE 11 17 6 9 1015.7 1015.7 0.0
23/11:00pm 23.7 23.8 15.4 59 5.0 E 9 13 5 7 1015.9 1015.9 0.0
23/10:30pm 24.0 23.8 15.7 59 5.0 E 11 15 6 8 1016.0 1016.0 0.0
23/10:00pm 24.0 23.9 16.1 61 4.8 E 11 19 6 10 1015.9 1015.9 0.0
23/09:30pm 24.2 23.4 16.1 60 4.9 ENE 15 20 8 11 1015.9 1015.9 0.0
23/09:00pm 24.2 23.8 16.3 61 4.8 ENE 13 20 7 11 1015.9 1015.9 0.0
23/08:30pm 24.4 24.0 16.2 60 5.0 ENE 13 20 7 11 1015.8 1015.8 0.0
23/08:00pm 24.3 23.6 16.3 61 4.9 ENE 15 22 8 12 1015.5 1015.5 0.0
23/07:30pm 24.6 24.4 16.8 62 4.8 ENE 13 19 7 10 1015.1 1015.1 0.0
23/07:00pm 24.6 24.5 17.0 62 4.7 ENE 13 20 7 11 1014.9 1014.9 0.0
23/06:30pm 24.9 24.4 17.0 61 4.9 ENE 15 24 8 13 1014.7 1014.7 0.0
23/06:00pm 25.3 24.8 16.9 59 5.2 ENE 15 26 8 14 1014.3 1014.3 0.0
23/05:30pm 25.8 25.3 16.9 58 5.5 ENE 15 22 8 12 1014.1 1014.1 0.0
23/05:00pm 26.0 25.0 16.6 56 5.8 E 17 26 9 14 1013.8 1013.8 0.0
23/04:30pm 26.4 25.3 16.3 53 6.2 E 17 26 9 14 1013.6 1013.6 0.0
23/04:00pm 26.7 25.3 16.5 53 6.3 E 19 30 10 16 1013.5 1013.5 0.0
23/03:30pm 26.8 25.2 15.9 51 6.7 ENE 19 28 10 15 1013.6 1013.6 0.0
23/03:00pm 27.2 25.2 15.6 49 7.1 ENE 20 28 11 15 1013.6 1013.6 0.0
23/02:30pm 26.8 25.0 16.1 52 6.6 ENE 20 33 11 18 1013.8 1013.8 0.0
23/02:00pm 27.6 25.4 15.9 49 7.2 ENE 22 33 12 18 1013.9 1013.9 0.0
23/01:30pm 27.5 25.7 16.1 49 7.0 ENE 20 30 11 16 1014.0 1014.0 0.0
23/01:00pm 27.0 25.2 16.1 51 6.7 ENE 20 30 11 16 1014.1 1014.1 0.0
23/12:30pm 27.0 24.5 15.1 48 7.2 NE 22 32 12 17 1014.3 1014.3 0.0
23/12:00pm 27.1 25.0 15.2 48 7.2 NE 20 30 11 16 1014.4 1014.4 0.0
23/11:30am 26.9 26.4 16.8 54 6.3 NE 15 26 8 14 1014.7 1014.7 0.0
23/11:00am 26.4 26.0 17.1 56 5.8 NE 15 22 8 12 1014.9 1014.9 0.0
23/10:30am 26.4 26.7 18.0 60 5.3 NE 13 19 7 10 1015.2 1015.2 0.0
23/10:00am 26.7 26.8 18.4 60 5.3 NE 15 22 8 12 1015.2 1015.2 0.0
23/09:30am 25.6 26.3 17.1 59 5.3 E 9 19 5 10 1015.1 1015.1 0.0
23/09:00am 25.9 26.4 17.4 59 5.3 E 11 17 6 9 1015.0 1015.0 0.0
23/08:30am 25.7 26.8 17.9 62 4.9 SE 9 13 5 7 1014.8 1014.8 0.0
23/08:00am 24.5 25.1 17.6 65 4.3 SSW 11 15 6 8 1014.9 1014.9 0.0
23/07:30am 23.3 24.4 18.9 76 2.8 SSW 11 15 6 8 1015.0 1015.0 0.0
23/07:00am 21.7 23.2 18.0 79 2.3 SSE 7 11 4 6 1014.9 1014.9 0.0
23/06:30am 20.4 21.2 18.1 87 1.4 SSW 11 13 6 7 1014.5 1014.5 0.0
23/06:00am 19.9 20.9 17.8 88 1.3 SSW 9 11 5 6 1014.0 1014.0 0.0
23/05:30am 19.8 20.6 17.3 85 1.5 SSW 9 11 5 6 1013.8 1013.8 0.0
23/05:00am 19.5 20.0 17.4 88 1.3 SSW 11 13 6 7 1013.5 1013.5 0.0
23/04:30am 20.3 21.2 17.5 84 1.7 SSW 9 11 5 6 1013.1 1013.1 0.0
23/04:00am 20.5 21.7 17.4 82 1.9 SSW 7 9 4 5 1012.9 1012.9 0.0
23/03:30am 20.0 20.8 17.2 84 1.7 SW 9 9 5 5 1012.8 1012.8 0.0
23/03:00am 20.8 21.7 17.5 81 2.0 WSW 9 11 5 6 1012.7 1012.7 0.0
23/02:30am 21.4 22.6 17.3 77 2.5 NE 7 9 4 5 1012.7 1012.7 0.0
23/02:00am 22.1 22.9 17.4 74 2.9 NE 9 11 5 6 1012.8 1012.8 0.0
23/01:30am 22.0 22.7 17.1 74 3.0 NE 9 11 5 6 1013.2 1013.2 0.0
23/01:00am 21.7 21.6 17.0 74 2.9 NE 13 17 7 9 1013.2 1013.2 0.0
23/12:30am 22.0 22.3 16.9 73 3.1 NE 11 15 6 8 1013.5 1013.5 0.0
23/12:00am 22.1 22.0 16.9 72 3.2 NNE 13 15 7 8 1013.8 1013.8 0.0
 
Date/Time
EST
Temp
°C
App
Temp
°C
Dew
Point
°C
Rel
Hum
%
Delta-T
°C
Wind Press
QNH
hPa
Press
MSL
hPa
Rain since
9am
mm
Dir  Spd
km/h
Gust
km/h
Spd
kts
Gust
kts
22/11:30pm 22.3 22.3 17.1 72 3.2 NNE 13 19 7 10 1013.9 1013.9 0.0

Other formats

Comma delimited format used in spreadsheet applications
http://www.bom.gov.au/fwo/IDQ60801/IDQ60801.94578.axf

JavaScript Object Notation format (JSON) in row-major order
http://www.bom.gov.au/fwo/IDQ60801/IDQ60801.94578.json

Data quality

Most of these data are generated automatically and are frequently updated. Quality checks on data are not normally performed. It is possible for incorrect values to appear. Refer to information at About Latest Weather Observations and please check the disclaimer before using these data.